Sekiu, Washington
Current Conditions -  °F | °C
As of 8:31 AM on Thursday 30 Oct 2014 (Local Time) from KUIL Reporting Station
Moderate Rain Moderate Rain  
Wind Chill: 52°   Ceiling: 2400
Heat Index: 52°   Visibility: 1.7mi
Dew Point: 52°   Wind: 0mph
Humidity: 100%   Direction: NA
Pressure: 29.77"   Gusts: NA
Location:  48.26°N, 124.3°W
Report Text: KUIL 301531Z AUTO 00000KT 1 3/4SM RA BR FEW017 BKN024 OVC030 11/11 A2977 RMK AO2 P0010 T01110111
Loading
Personal Weather Stations






























Interactive Weather Map
Tropical Storm Tracking
New forecast layout! Learn more

10-Day Weather Forecast

Advertisements
Track Severe Weather on mobile